Time;durP1;ratioP1;P1;durP2;ratioP2;P2;SDS_P1;SDS_P2;PMS_P1;PMS_P2;Temp;Humidity;BMP_temperature;BMP_pressure;BME280_temperature;BME280_humidity;BME280_pressure;Samples;Min_cycle;Max_cycle;Signal;HPM_P1;HPM_P2
2022/09/27 00:00:15;;;;;;;1.87;1.70;;;12.60;99.90;;;;;;5221972;28;20183;-49
2022/09/27 00:02:46;;;;;;;2.50;2.33;;;12.60;99.90;;;;;;5224587;28;20283;-49
2022/09/27 00:05:17;;;;;;;1.93;1.83;;;12.40;99.90;;;;;;5240733;28;20186;-48
2022/09/27 00:07:48;;;;;;;1.30;1.30;;;12.50;99.90;;;;;;5224800;28;20250;-49
2022/09/27 00:10:19;;;;;;;3.03;2.00;;;12.50;99.90;;;;;;5238617;28;20957;-50
2022/09/27 00:12:50;;;;;;;1.30;1.30;;;12.50;99.90;;;;;;5219767;28;20361;-49
2022/09/27 00:15:21;;;;;;;1.60;1.50;;;12.50;99.90;;;;;;5234114;28;20206;-49
2022/09/27 00:17:52;;;;;;;3.87;1.60;;;12.50;99.90;;;;;;5237851;28;20449;-49
2022/09/27 00:20:22;;;;;;;1.80;1.70;;;12.50;99.90;;;;;;5228674;28;20647;-49
2022/09/27 00:22:53;;;;;;;2.50;2.03;;;12.40;99.90;;;;;;5231263;28;20248;-49
2022/09/27 00:25:23;;;;;;;2.20;1.17;;;12.60;99.90;;;;;;5226997;28;20664;-48
2022/09/27 00:27:54;;;;;;;2.67;1.80;;;12.50;99.90;;;;;;5233355;28;20647;-49
2022/09/27 00:30:24;;;;;;;1.67;1.57;;;12.50;99.90;;;;;;5229764;28;21310;-50
2022/09/27 00:32:55;;;;;;;2.40;1.77;;;12.50;99.90;;;;;;5233095;28;20670;-49
2022/09/27 00:35:25;;;;;;;4.40;1.80;;;12.50;99.90;;;;;;5226475;28;20584;-49
2022/09/27 00:37:56;;;;;;;1.50;1.50;;;12.40;99.90;;;;;;5255940;28;20682;-49
2022/09/27 00:40:27;;;;;;;1.43;1.27;;;12.40;99.90;;;;;;5225919;28;20183;-49
2022/09/27 00:42:57;;;;;;;2.03;1.80;;;12.40;99.90;;;;;;5238923;28;20205;-49
2022/09/27 00:45:28;;;;;;;2.37;2.03;;;12.40;99.90;;;;;;5218148;28;20183;-49
2022/09/27 00:48:03;;;;;;;1.40;1.30;;;12.30;99.90;;;;;;5230736;28;20261;-49
2022/09/27 00:50:41;;;;;;;16.03;1.80;;;12.30;99.90;;;;;;5228737;28;20240;-50
2022/09/27 00:53:23;;;;;;;1.50;1.50;;;12.40;99.90;;;;;;5248862;28;20596;-50
2022/09/27 00:55:59;;;;;;;1.37;1.27;;;12.40;99.90;;;;;;5238331;28;20515;-49
2022/09/27 00:58:34;;;;;;;2.90;1.20;;;12.30;99.90;;;;;;5224212;28;20475;-49
2022/09/27 01:01:09;;;;;;;1.63;1.53;;;12.40;99.90;;;;;;5235336;28;20539;-50
2022/09/27 01:03:48;;;;;;;1.30;1.30;;;12.40;99.90;;;;;;5223604;28;20464;-49
2022/09/27 01:06:20;;;;;;;2.07;1.90;;;12.30;99.90;;;;;;5240726;28;20441;-50
2022/09/27 01:08:51;;;;;;;5.40;1.50;;;12.30;99.90;;;;;;5233393;28;20438;-51
2022/09/27 01:11:37;;;;;;;3.80;2.10;;;12.20;99.90;;;;;;5240718;28;20845;-49
2022/09/27 01:14:32;;;;;;;1.40;1.40;;;12.20;99.90;;;;;;5240076;28;20190;-49
2022/09/27 01:17:29;;;;;;;1.90;1.53;;;12.20;99.90;;;;;;5230686;28;20819;-49
2022/09/27 01:20:45;;;;;;;1.73;1.63;;;12.20;99.90;;;;;;5229804;28;20455;-49
2022/09/27 01:23:24;;;;;;;5.30;2.03;;;12.20;99.90;;;;;;5227564;28;20488;-50
2022/09/27 01:26:04;;;;;;;2.60;1.67;;;12.10;99.90;;;;;;5231069;28;20425;-50
2022/09/27 01:28:49;;;;;;;1.77;1.77;;;12.20;99.90;;;;;;5225850;28;20433;-49
2022/09/27 01:31:41;;;;;;;1.83;1.73;;;12.10;99.90;;;;;;5226189;28;20487;-49
2022/09/27 01:34:22;;;;;;;3.57;1.37;;;12.20;99.90;;;;;;5231839;28;20445;-49
2022/09/27 01:37:07;;;;;;;2.33;2.23;;;12.20;99.90;;;;;;5234588;28;20424;-49
2022/09/27 01:39:49;;;;;;;1.90;1.80;;;12.10;99.90;;;;;;5233648;28;20502;-49
2022/09/27 01:42:36;;;;;;;1.97;1.40;;;12.10;99.90;;;;;;5224195;28;20465;-50
2022/09/27 01:45:30;;;;;;;1.70;1.60;;;12.20;99.90;;;;;;5217827;28;20908;-49
2022/09/27 01:48:08;;;;;;;2.10;2.00;;;12.30;99.90;;;;;;5235913;28;20440;-50
2022/09/27 01:51:06;;;;;;;4.63;1.83;;;12.20;99.90;;;;;;5225883;28;20433;-49
2022/09/27 01:53:46;;;;;;;1.70;1.60;;;12.30;99.90;;;;;;5242018;28;20456;-51
2022/09/27 01:56:22;;;;;;;1.73;1.60;;;12.20;99.90;;;;;;5240941;28;20471;-50
2022/09/27 01:59:08;;;;;;;2.00;1.23;;;12.40;99.90;;;;;;5229906;28;20456;-50
2022/09/27 02:01:44;;;;;;;2.00;1.40;;;12.50;99.90;;;;;;5223379;28;20456;-49
2022/09/27 02:04:20;;;;;;;2.10;1.60;;;12.40;99.90;;;;;;5229214;28;20437;-49
2022/09/27 02:06:58;;;;;;;1.53;1.30;;;12.40;99.90;;;;;;5226029;28;20507;-49
2022/09/27 02:09:44;;;;;;;4.50;1.43;;;12.40;99.90;;;;;;5226750;28;20437;-50
2022/09/27 02:12:21;;;;;;;1.53;1.53;;;12.30;99.90;;;;;;5220284;28;20468;-51
2022/09/27 02:15:00;;;;;;;3.07;1.60;;;12.30;99.90;;;;;;5251435;28;20455;-49
2022/09/27 02:18:00;;;;;;;1.50;1.40;;;12.30;99.90;;;;;;5236840;28;20433;-49
2022/09/27 02:20:43;;;;;;;1.67;1.20;;;12.30;99.90;;;;;;5235217;28;20442;-49
2022/09/27 02:23:18;;;;;;;1.07;1.07;;;12.30;99.90;;;;;;5227483;28;20444;-49
2022/09/27 02:26:02;;;;;;;1.83;1.73;;;12.30;99.90;;;;;;5244275;28;20782;-51
2022/09/27 02:28:38;;;;;;;1.60;1.50;;;12.30;99.90;;;;;;5228621;28;20872;-50
2022/09/27 02:31:09;;;;;;;1.87;1.77;;;12.30;99.90;;;;;;5231188;28;20441;-50
2022/09/27 02:33:48;;;;;;;7.23;1.50;;;12.40;99.90;;;;;;5240614;28;20473;-50
2022/09/27 02:36:19;;;;;;;6.67;1.30;;;12.40;99.90;;;;;;5224165;28;20603;-50
2022/09/27 02:38:50;;;;;;;4.30;1.50;;;12.50;99.90;;;;;;5231006;28;20461;-49
2022/09/27 02:41:21;;;;;;;1.10;1.10;;;12.50;99.90;;;;;;5231873;28;20433;-50
2022/09/27 02:43:56;;;;;;;6.53;1.20;;;12.60;99.90;;;;;;5232078;28;20179;-50
2022/09/27 02:46:44;;;;;;;2.10;1.40;;;12.50;99.90;;;;;;5242063;28;20436;-50
2022/09/27 02:49:39;;;;;;;1.37;1.37;;;12.50;99.90;;;;;;5225817;28;21048;-49
2022/09/27 02:52:28;;;;;;;1.27;1.27;;;12.60;99.90;;;;;;5228344;28;20866;-50
2022/09/27 02:55:23;;;;;;;1.20;1.20;;;12.60;99.90;;;;;;5220965;28;20426;-48
2022/09/27 02:58:15;;;;;;;4.03;1.80;;;12.60;99.90;;;;;;5229331;28;20819;-50
2022/09/27 03:01:07;;;;;;;1.70;1.60;;;12.50;99.90;;;;;;5245518;28;20440;-49
2022/09/27 03:04:09;;;;;;;1.37;1.10;;;12.60;99.90;;;;;;5249885;28;20803;-48
2022/09/27 03:06:44;;;;;;;1.50;1.23;;;12.50;99.90;;;;;;5227364;28;20429;-50
2022/09/27 03:09:27;;;;;;;1.60;1.50;;;12.50;99.90;;;;;;5243069;28;20524;-49
2022/09/27 03:11:58;;;;;;;1.60;1.47;;;12.60;99.90;;;;;;5228803;28;20453;-50
2022/09/27 03:14:29;;;;;;;2.40;1.90;;;12.60;99.90;;;;;;5227638;28;20440;-50
2022/09/27 03:16:59;;;;;;;4.50;1.57;;;12.60;99.90;;;;;;5232465;28;20183;-50
2022/09/27 03:19:30;;;;;;;4.33;1.97;;;12.80;99.90;;;;;;5235788;28;20207;-49
2022/09/27 03:22:00;;;;;;;1.70;1.60;;;12.60;99.90;;;;;;5228954;28;20202;-49
2022/09/27 03:24:31;;;;;;;2.80;1.30;;;12.80;99.90;;;;;;5239162;28;20190;-49
2022/09/27 03:27:02;;;;;;;1.57;1.47;;;12.80;99.90;;;;;;5233141;28;20226;-51
2022/09/27 03:29:33;;;;;;;1.97;1.87;;;12.80;99.90;;;;;;5243066;28;20179;-50
2022/09/27 03:32:03;;;;;;;1.90;1.80;;;12.70;99.90;;;;;;5259271;22;20896;-49
2022/09/27 03:34:34;;;;;;;2.87;1.40;;;12.70;99.90;;;;;;5266311;28;20193;-51
2022/09/27 03:37:04;;;;;;;1.87;1.70;;;12.60;99.90;;;;;;5284517;28;20177;-51
2022/09/27 03:39:35;;;;;;;1.47;1.40;;;12.60;99.90;;;;;;5258942;28;20246;-51
2022/09/27 03:42:06;;;;;;;10.50;2.00;;;12.60;99.90;;;;;;5236625;28;20285;-51
2022/09/27 03:44:36;;;;;;;1.73;1.63;;;12.60;99.90;;;;;;5242878;28;20178;-49
2022/09/27 03:47:07;;;;;;;1.30;1.30;;;12.50;99.90;;;;;;5251232;28;20182;-51
2022/09/27 03:49:37;;;;;;;2.33;1.80;;;12.60;99.90;;;;;;5244095;28;20182;-49
2022/09/27 03:52:08;;;;;;;1.63;1.57;;;12.60;99.90;;;;;;5260903;28;20213;-50
2022/09/27 03:54:39;;;;;;;1.80;1.70;;;12.60;99.90;;;;;;5242041;28;20677;-51
2022/09/27 03:57:10;;;;;;;2.77;1.97;;;12.60;99.90;;;;;;5256953;28;20183;-51
2022/09/27 03:59:40;;;;;;;1.50;1.50;;;12.50;99.90;;;;;;5262965;28;20205;-49
2022/09/27 04:02:11;;;;;;;1.37;1.17;;;12.60;99.90;;;;;;5258946;28;20464;-50
2022/09/27 04:04:42;;;;;;;1.60;1.50;;;12.50;99.90;;;;;;5261983;28;20170;-50
2022/09/27 04:07:12;;;;;;;1.60;1.43;;;12.50;99.90;;;;;;5260612;28;20182;-52
2022/09/27 04:09:45;;;;;;;1.57;1.47;;;12.50;99.90;;;;;;5253480;28;20282;-50
2022/09/27 04:12:15;;;;;;;1.43;1.43;;;12.60;99.90;;;;;;5250485;28;20237;-50
2022/09/27 04:14:46;;;;;;;2.30;1.30;;;12.50;99.90;;;;;;5259348;28;22347;-51
2022/09/27 04:17:17;;;;;;;3.27;1.33;;;12.60;99.90;;;;;;5257731;28;20174;-51
2022/09/27 04:19:47;;;;;;;1.43;1.43;;;12.50;99.90;;;;;;5244299;28;20217;-51
2022/09/27 04:22:18;;;;;;;2.30;2.20;;;12.30;99.90;;;;;;5241638;28;20198;-50
2022/09/27 04:24:49;;;;;;;2.20;1.80;;;12.50;99.90;;;;;;5240864;28;20186;-51
2022/09/27 04:27:23;;;;;;;10.73;1.73;;;12.30;99.90;;;;;;5237076;28;20208;-51
2022/09/27 04:29:54;;;;;;;2.43;2.23;;;12.20;99.90;;;;;;5260785;28;20429;-52
2022/09/27 04:32:24;;;;;;;4.93;2.17;;;12.30;99.90;;;;;;5243980;28;20939;-48
2022/09/27 04:37:45;;;;;;;1.53;1.43;;;12.40;99.90;;;;;;5233846;28;20216;-51
2022/09/27 04:40:16;;;;;;;1.80;1.70;;;12.40;99.90;;;;;;5248210;28;20774;-50
2022/09/27 04:42:47;;;;;;;2.60;1.60;;;12.50;99.90;;;;;;5237368;28;20455;-52
2022/09/27 04:45:19;;;;;;;2.70;1.60;;;12.60;99.90;;;;;;5242150;28;20702;-49
2022/09/27 04:47:50;;;;;;;1.63;1.53;;;12.40;99.90;;;;;;5242731;28;20440;-51
2022/09/27 04:50:20;;;;;;;3.03;1.83;;;12.20;99.90;;;;;;5239711;28;20471;-49
2022/09/27 04:52:52;;;;;;;2.47;1.93;;;12.10;99.90;;;;;;5249347;28;20670;-50
2022/09/27 04:55:22;;;;;;;3.80;1.67;;;12.10;99.90;;;;;;5251779;28;20285;-51
2022/09/27 04:57:53;;;;;;;1.80;1.30;;;11.90;99.90;;;;;;5235652;28;20554;-48
2022/09/27 05:00:24;;;;;;;1.80;1.70;;;11.60;99.90;;;;;;5249914;28;20651;-51
2022/09/27 05:02:54;;;;;;;1.50;1.50;;;11.50;99.90;;;;;;5251525;28;21081;-51
2022/09/27 05:05:25;;;;;;;1.43;1.43;;;11.80;99.90;;;;;;5248995;28;20201;-50
2022/09/27 05:07:56;;;;;;;2.50;1.77;;;11.60;99.90;;;;;;5241159;28;20261;-51
2022/09/27 05:10:26;;;;;;;8.53;1.90;;;11.50;99.90;;;;;;5250989;28;20622;-51
2022/09/27 05:12:57;;;;;;;1.57;1.57;;;11.40;99.90;;;;;;5253503;28;20315;-50
2022/09/27 05:15:27;;;;;;;1.50;1.50;;;11.40;99.90;;;;;;5253540;28;20216;-51
2022/09/27 05:17:58;;;;;;;2.60;1.70;;;11.30;99.90;;;;;;5242369;28;20206;-51
2022/09/27 05:20:29;;;;;;;2.30;2.20;;;11.30;99.90;;;;;;5249360;28;20273;-52
2022/09/27 05:23:00;;;;;;;2.30;2.10;;;11.30;99.90;;;;;;5239741;28;20654;-50
2022/09/27 05:25:31;;;;;;;2.60;2.40;;;11.20;99.90;;;;;;5253538;28;20199;-51
2022/09/27 05:28:03;;;;;;;3.33;2.17;;;11.20;99.90;;;;;;5246239;28;20440;-49
2022/09/27 05:30:35;;;;;;;2.10;2.00;;;11.30;99.90;;;;;;5245171;28;20562;-48
2022/09/27 05:33:05;;;;;;;2.00;1.90;;;11.30;99.90;;;;;;5237362;28;20460;-51
2022/09/27 05:35:36;;;;;;;3.07;1.90;;;11.30;99.90;;;;;;5240047;28;20448;-51
2022/09/27 05:38:06;;;;;;;4.50;2.07;;;11.30;99.90;;;;;;5243448;28;20209;-51
2022/09/27 05:40:37;;;;;;;1.50;1.40;;;11.30;99.90;;;;;;5258569;28;20669;-48
2022/09/27 05:43:08;;;;;;;1.70;1.60;;;11.20;99.90;;;;;;5245465;28;20203;-49
2022/09/27 05:45:39;;;;;;;2.80;2.60;;;11.30;99.90;;;;;;5243684;28;20178;-50
2022/09/27 05:48:11;;;;;;;2.30;2.20;;;11.20;99.90;;;;;;5233410;28;20194;-49
2022/09/27 05:50:41;;;;;;;2.30;2.20;;;11.20;99.90;;;;;;5234150;28;20190;-48
2022/09/27 05:53:12;;;;;;;2.37;2.13;;;11.20;99.90;;;;;;5242618;28;20452;-48
2022/09/27 05:55:43;;;;;;;1.83;1.73;;;11.20;99.90;;;;;;5244896;28;20179;-51
2022/09/27 05:58:15;;;;;;;1.50;1.50;;;11.30;99.90;;;;;;5237477;28;20209;-50
2022/09/27 06:00:45;;;;;;;3.13;1.97;;;11.20;99.90;;;;;;5247273;28;20266;-51
2022/09/27 06:03:16;;;;;;;2.43;2.17;;;11.20;99.90;;;;;;5246521;28;20902;-49
2022/09/27 06:05:47;;;;;;;2.30;2.20;;;11.20;99.90;;;;;;5247205;28;20190;-49
2022/09/27 06:08:19;;;;;;;1.93;1.83;;;11.30;99.90;;;;;;5246679;28;20420;-51
2022/09/27 06:10:52;;;;;;;3.30;2.20;;;11.40;99.90;;;;;;5247513;28;20502;-51
2022/09/27 06:13:22;;;;;;;2.37;2.27;;;11.20;99.90;;;;;;5237213;28;20543;-50
2022/09/27 06:15:53;;;;;;;2.23;2.13;;;11.30;99.90;;;;;;5262856;28;20516;-50
2022/09/27 06:18:24;;;;;;;3.23;2.60;;;11.30;99.90;;;;;;5251238;28;20206;-49
2022/09/27 06:20:57;;;;;;;3.13;2.93;;;11.20;99.90;;;;;;5248846;28;20961;-47
2022/09/27 06:23:28;;;;;;;2.60;2.47;;;11.40;99.90;;;;;;5253043;28;20455;-50
2022/09/27 06:26:05;;;;;;;2.77;2.20;;;11.30;99.90;;;;;;5239203;28;20433;-50
2022/09/27 06:28:35;;;;;;;2.20;2.03;;;11.30;99.90;;;;;;5246963;28;20910;-50
2022/09/27 06:31:10;;;;;;;2.87;2.63;;;11.20;99.90;;;;;;5247008;28;20503;-49
2022/09/27 06:33:41;;;;;;;7.70;2.90;;;11.30;99.90;;;;;;5251040;28;20224;-52
2022/09/27 06:36:11;;;;;;;3.93;2.63;;;11.40;99.90;;;;;;5255497;28;20447;-50
2022/09/27 06:38:45;;;;;;;2.97;2.63;;;11.40;99.90;;;;;;5245013;28;20210;-51
2022/09/27 06:41:15;;;;;;;5.07;4.57;;;11.40;99.90;;;;;;5248385;28;20182;-49
2022/09/27 06:43:48;;;;;;;3.83;3.60;;;11.40;99.90;;;;;;5248552;28;20468;-50
2022/09/27 06:46:18;;;;;;;8.80;2.90;;;11.40;99.90;;;;;;5255441;28;20187;-50
2022/09/27 06:48:49;;;;;;;2.50;2.40;;;11.40;99.90;;;;;;5240499;28;20471;-51
2022/09/27 06:51:20;;;;;;;3.90;2.70;;;11.40;99.90;;;;;;5244669;28;20530;-50
2022/09/27 06:53:50;;;;;;;2.60;2.50;;;11.30;99.90;;;;;;5239657;28;20552;-51
2022/09/27 06:56:21;;;;;;;2.90;2.60;;;11.30;99.90;;;;;;5241892;28;20289;-49
2022/09/27 07:01:41;;;;;;;5.93;2.30;;;11.30;99.90;;;;;;5237933;28;20174;-48
2022/09/27 07:04:12;;;;;;;4.10;2.30;;;11.50;99.90;;;;;;5248930;28;20429;-47
2022/09/27 07:06:43;;;;;;;4.53;3.53;;;11.40;99.90;;;;;;5252447;28;20179;-49
2022/09/27 07:09:13;;;;;;;10.43;3.63;;;11.40;99.90;;;;;;5241217;28;22426;-49
2022/09/27 07:11:44;;;;;;;6.00;2.90;;;11.40;99.90;;;;;;5243573;28;20205;-46
2022/09/27 07:14:16;;;;;;;3.23;2.90;;;11.40;99.90;;;;;;5240032;28;20324;-48
2022/09/27 07:16:46;;;;;;;4.43;3.30;;;11.30;99.90;;;;;;5246789;28;20451;-46
2022/09/27 07:19:17;;;;;;;7.90;3.50;;;11.50;99.90;;;;;;5243018;28;20467;-46
2022/09/27 07:21:50;;;;;;;2.97;2.80;;;11.50;99.90;;;;;;5248444;28;20265;-47
2022/09/27 07:24:21;;;;;;;6.90;3.03;;;11.60;99.90;;;;;;5259045;28;20189;-47
2022/09/27 07:26:51;;;;;;;4.33;2.87;;;11.60;99.90;;;;;;5252398;28;20424;-46
2022/09/27 07:29:22;;;;;;;2.83;2.63;;;11.70;99.90;;;;;;5238047;28;20187;-46
2022/09/27 07:31:53;;;;;;;3.17;2.97;;;11.60;99.90;;;;;;5242899;28;20201;-48
2022/09/27 07:34:23;;;;;;;4.97;2.53;;;11.60;99.90;;;;;;5258051;28;20190;-48
2022/09/27 07:37:02;;;;;;;2.60;2.40;;;11.70;99.90;;;;;;5251052;28;20187;-48
2022/09/27 07:39:33;;;;;;;6.80;3.10;;;11.60;99.90;;;;;;5263047;28;20321;-46
2022/09/27 07:42:05;;;;;;;2.80;2.60;;;11.60;99.90;;;;;;5248345;28;20488;-52
2022/09/27 07:44:35;;;;;;;3.73;2.37;;;11.50;99.90;;;;;;5242305;28;20174;-47
2022/09/27 07:47:07;;;;;;;2.80;2.60;;;11.60;99.90;;;;;;5256096;28;20769;-48
2022/09/27 07:49:37;;;;;;;8.23;3.30;;;11.50;99.90;;;;;;5255231;28;20189;-48
2022/09/27 07:52:08;;;;;;;3.53;3.30;;;11.60;99.90;;;;;;5262223;28;20983;-46
2022/09/27 07:54:39;;;;;;;2.10;1.90;;;11.60;99.90;;;;;;5245218;28;20273;-50
2022/09/27 07:57:10;;;;;;;2.87;2.70;;;11.60;99.90;;;;;;5248501;28;20197;-48
2022/09/27 07:59:41;;;;;;;2.27;2.17;;;11.60;99.90;;;;;;5238617;28;20242;-52
2022/09/27 08:02:14;;;;;;;2.70;2.30;;;11.60;99.90;;;;;;5245573;28;20452;-47
2022/09/27 08:04:47;;;;;;;4.40;3.67;;;11.70;99.90;;;;;;5247576;28;20432;-49
2022/09/27 08:07:17;;;;;;;2.80;2.70;;;11.60;99.90;;;;;;5243314;28;20986;-49
2022/09/27 08:09:48;;;;;;;3.40;3.20;;;11.60;99.90;;;;;;5244501;28;20452;-55
2022/09/27 08:12:20;;;;;;;2.93;2.70;;;11.70;99.90;;;;;;5240896;28;20275;-47
2022/09/27 08:14:51;;;;;;;3.97;3.33;;;11.80;99.90;;;;;;5241570;28;20186;-49
2022/09/27 08:17:22;;;;;;;7.93;3.53;;;11.80;99.90;;;;;;5241667;28;20432;-49
2022/09/27 08:19:52;;;;;;;3.00;2.80;;;11.80;99.90;;;;;;5256349;28;20460;-47
2022/09/27 08:22:23;;;;;;;3.23;2.57;;;11.70;99.90;;;;;;5253577;28;20290;-47
2022/09/27 08:24:54;;;;;;;2.80;2.70;;;11.60;99.90;;;;;;5242378;28;20180;-49
2022/09/27 08:27:24;;;;;;;2.47;2.10;;;11.40;99.90;;;;;;5262669;28;20520;-47
2022/09/27 08:29:55;;;;;;;2.60;2.50;;;11.50;99.90;;;;;;5246405;28;20546;-47
2022/09/27 08:32:27;;;;;;;3.47;3.17;;;11.60;99.90;;;;;;5238816;28;20243;-49
2022/09/27 08:34:58;;;;;;;5.00;2.80;;;11.50;99.90;;;;;;5242178;28;20194;-47
2022/09/27 08:37:29;;;;;;;2.93;2.07;;;11.40;99.90;;;;;;5239106;28;21004;-47
2022/09/27 08:40:00;;;;;;;4.03;3.10;;;11.50;99.90;;;;;;5248439;28;20464;-49
2022/09/27 08:42:38;;;;;;;2.77;2.50;;;11.40;99.90;;;;;;5222799;28;20514;-47
2022/09/27 08:45:21;;;;;;;3.47;3.23;;;11.40;99.90;;;;;;5260505;28;20442;-52
2022/09/27 08:47:59;;;;;;;4.07;3.57;;;11.50;99.90;;;;;;5243146;28;20440;-47
2022/09/27 08:50:33;;;;;;;2.80;2.60;;;11.60;99.90;;;;;;5231324;28;20452;-47
2022/09/27 08:53:13;;;;;;;2.83;2.43;;;11.60;99.90;;;;;;5239486;28;20475;-46
2022/09/27 08:55:46;;;;;;;6.87;3.60;;;11.70;99.90;;;;;;5256121;28;20526;-46
2022/09/27 08:58:35;;;;;;;2.73;2.63;;;11.80;99.90;;;;;;5243958;28;20489;-47
2022/09/27 09:01:13;;;;;;;2.63;2.30;;;11.80;99.90;;;;;;5246799;28;20799;-47
2022/09/27 09:03:54;;;;;;;9.63;5.60;;;11.80;99.90;;;;;;5243807;28;20464;-47
2022/09/27 09:06:29;;;;;;;9.30;7.83;;;11.90;99.90;;;;;;5244370;28;20436;-46
2022/09/27 09:09:26;;;;;;;4.00;3.70;;;12.00;99.90;;;;;;5247315;28;20439;-46
2022/09/27 09:15:53;;;;;;;11.40;5.13;;;11.90;99.90;;;;;;5242452;28;20452;-47
2022/09/27 09:19:07;;;;;;;6.40;4.70;;;11.80;99.90;;;;;;5251606;28;20550;-46
2022/09/27 09:22:12;;;;;;;5.90;5.40;;;11.80;99.90;;;;;;5237969;28;20532;-47
2022/09/27 09:25:01;;;;;;;4.37;4.17;;;11.80;99.90;;;;;;5250431;28;20881;-46
2022/09/27 09:27:52;;;;;;;10.07;6.00;;;11.90;99.90;;;;;;5239320;28;20853;-47
2022/09/27 09:30:27;;;;;;;9.33;5.97;;;11.90;99.90;;;;;;5265697;28;20429;-49
2022/09/27 09:33:19;;;;;;;8.73;7.93;;;11.90;99.90;;;;;;5251527;22;20499;-49
2022/09/27 09:36:00;;;;;;;8.40;7.03;;;11.90;99.90;;;;;;5265959;28;20544;-50
2022/09/27 09:38:41;;;;;;;6.07;4.40;;;11.90;99.90;;;;;;5270583;28;20981;-48
2022/09/27 09:41:21;;;;;;;3.70;3.60;;;11.90;99.90;;;;;;5272614;28;20906;-48
2022/09/27 09:44:16;;;;;;;4.20;3.57;;;12.00;99.90;;;;;;5253399;28;20916;-52
2022/09/27 09:46:52;;;;;;;3.40;3.10;;;12.00;99.90;;;;;;5241515;28;20433;-49
2022/09/27 09:49:30;;;;;;;4.03;3.40;;;12.10;99.90;;;;;;5245501;28;20448;-48
2022/09/27 09:52:10;;;;;;;9.83;2.97;;;12.20;99.90;;;;;;5238364;28;20451;-49
2022/09/27 09:54:48;;;;;;;3.63;2.50;;;12.30;99.90;;;;;;5251408;28;20924;-48
2022/09/27 09:57:35;;;;;;;2.40;2.30;;;12.30;99.90;;;;;;5240554;28;20444;-49
2022/09/27 10:00:17;;;;;;;2.80;2.60;;;12.20;99.90;;;;;;5249190;28;20479;-48
2022/09/27 10:02:51;;;;;;;2.90;2.80;;;12.20;99.90;;;;;;5247635;28;20465;-51
2022/09/27 10:05:24;;;;;;;3.00;2.50;;;12.40;99.90;;;;;;5250545;28;20803;-48
2022/09/27 10:07:59;;;;;;;2.83;2.73;;;12.30;99.90;;;;;;5247663;28;20455;-49
2022/09/27 10:10:30;;;;;;;3.40;2.73;;;12.20;99.90;;;;;;5248267;28;20628;-48
2022/09/27 10:13:02;;;;;;;2.73;2.50;;;12.20;99.90;;;;;;5247291;28;20568;-50
2022/09/27 10:15:33;;;;;;;3.50;3.27;;;12.20;99.90;;;;;;5241280;28;20420;-48
2022/09/27 10:18:04;;;;;;;5.23;3.47;;;12.40;99.90;;;;;;5247689;28;20467;-48
2022/09/27 10:20:42;;;;;;;10.13;2.90;;;12.60;99.90;;;;;;5247505;28;20638;-49
2022/09/27 10:23:19;;;;;;;2.40;2.30;;;12.90;99.90;;;;;;5232831;28;20276;-50
2022/09/27 10:25:59;;;;;;;2.30;2.30;;;13.40;99.90;;;;;;5229976;28;20932;-51
2022/09/27 10:28:44;;;;;;;2.50;2.40;;;13.90;99.90;;;;;;5219673;28;20794;-51
2022/09/27 10:31:19;;;;;;;2.47;2.27;;;14.40;99.90;;;;;;5237982;28;20437;-51
2022/09/27 10:33:58;;;;;;;5.33;2.80;;;14.70;99.90;;;;;;5206573;28;1158820;-47
2022/09/27 10:36:31;;;;;;;2.07;1.97;;;14.80;99.90;;;;;;5246456;28;20185;-50
2022/09/27 10:39:05;;;;;;;3.43;2.70;;;15.00;99.90;;;;;;5244402;28;21030;-51
2022/09/27 10:41:38;;;;;;;2.67;2.47;;;14.80;99.90;;;;;;5249455;28;20440;-48
2022/09/27 10:44:14;;;;;;;2.17;2.07;;;14.90;99.90;;;;;;5242169;28;20944;-49
2022/09/27 10:46:49;;;;;;;8.00;2.20;;;14.80;99.90;;;;;;5248700;28;20441;-51
2022/09/27 10:49:34;;;;;;;1.90;1.90;;;14.80;99.90;;;;;;5245441;28;20791;-49
2022/09/27 10:52:09;;;;;;;3.90;3.47;;;14.90;99.90;;;;;;5244599;28;20925;-50
2022/09/27 10:54:42;;;;;;;2.63;2.40;;;15.10;99.90;;;;;;5244044;28;20939;-48
2022/09/27 10:57:21;;;;;;;4.30;4.00;;;15.20;99.90;;;;;;5244956;28;20436;-49
2022/09/27 10:59:58;;;;;;;2.97;2.77;;;15.20;99.90;;;;;;5244854;28;20884;-48
2022/09/27 11:02:32;;;;;;;8.40;3.30;;;15.10;99.90;;;;;;5242050;28;20458;-50
2022/09/27 11:05:32;;;;;;;2.40;2.20;;;15.30;99.90;;;;;;5242124;28;20440;-50
2022/09/27 11:08:18;;;;;;;2.80;2.60;;;15.50;99.90;;;;;;5243306;28;20436;-47
2022/09/27 11:11:12;;;;;;;2.90;2.57;;;15.30;99.90;;;;;;5240076;28;20947;-50
2022/09/27 11:13:58;;;;;;;8.40;4.30;;;15.10;99.90;;;;;;5240453;28;20478;-49
2022/09/27 11:16:50;;;;;;;3.83;2.77;;;14.80;99.90;;;;;;5236137;28;20432;-50
2022/09/27 11:20:15;;;;;;;2.87;1.80;;;14.80;99.90;;;;;;5243054;28;20487;-49
2022/09/27 11:23:22;;;;;;;3.50;2.87;;;14.50;99.90;;;;;;5215796;28;20457;-52
2022/09/27 11:26:16;;;;;;;2.80;2.03;;;14.30;99.90;;;;;;5238527;28;20444;-50
2022/09/27 11:28:47;;;;;;;2.63;2.43;;;14.00;99.90;;;;;;5233083;28;20441;-51
2022/09/27 11:31:38;;;;;;;8.03;5.10;;;13.80;99.90;;;;;;5239156;28;20440;-50
2022/09/27 11:34:48;;;;;;;8.63;4.40;;;13.70;99.90;;;;;;5248391;28;20306;-49
2022/09/27 11:37:28;;;;;;;6.70;3.87;;;13.70;99.90;;;;;;5237261;28;20884;-49
2022/09/27 11:40:21;;;;;;;2.80;2.70;;;13.60;99.90;;;;;;5240225;28;20520;-50
2022/09/27 11:43:03;;;;;;;5.13;2.53;;;13.40;99.90;;;;;;5238207;28;20861;-49
2022/09/27 11:45:52;;;;;;;4.00;2.90;;;13.30;99.90;;;;;;5244094;28;20858;-53
2022/09/27 11:48:50;;;;;;;2.33;2.13;;;13.20;99.90;;;;;;5258420;28;20551;-50
2022/09/27 11:51:42;;;;;;;3.40;3.20;;;13.20;99.90;;;;;;5242533;28;20483;-49
2022/09/27 11:54:41;;;;;;;3.20;2.90;;;13.10;99.90;;;;;;5244708;28;20457;-49
2022/09/27 11:57:25;;;;;;;5.63;3.33;;;13.10;99.90;;;;;;5242950;28;20451;-49
2022/09/27 12:00:19;;;;;;;3.23;1.20;;;12.90;99.90;;;;;;5244101;28;20460;-49
2022/09/27 12:03:13;;;;;;;1.97;1.87;;;12.50;99.90;;;;;;5247456;28;20456;-50
2022/09/27 12:06:14;;;;;;;3.20;2.73;;;12.10;99.90;;;;;;5244336;28;20476;-51
2022/09/27 12:08:58;;;;;;;4.23;2.73;;;11.80;99.90;;;;;;5243475;28;20456;-51
2022/09/27 12:11:52;;;;;;;2.20;1.13;;;11.60;99.90;;;;;;5246130;28;20491;-50
2022/09/27 12:14:35;;;;;;;3.37;1.47;;;11.40;99.90;;;;;;5246976;28;20444;-50
2022/09/27 12:17:14;;;;;;;1.10;1.10;;;11.20;99.90;;;;;;5243831;28;20866;-50
2022/09/27 12:19:50;;;;;;;3.93;0.80;;;11.10;99.90;;;;;;5243736;28;20468;-50
2022/09/27 12:22:39;;;;;;;2.57;2.40;;;11.10;99.90;;;;;;5244254;28;20468;-51
2022/09/27 12:25:15;;;;;;;7.80;5.03;;;11.00;99.90;;;;;;5242986;28;21076;-51
2022/09/27 12:27:51;;;;;;;4.60;2.40;;;10.90;99.90;;;;;;5240654;28;20448;-51
2022/09/27 12:30:21;;;;;;;1.67;1.57;;;10.80;99.90;;;;;;5249019;28;20512;-53
2022/09/27 12:33:14;;;;;;;1.53;1.20;;;10.90;99.90;;;;;;5246875;28;20527;-54
2022/09/27 12:35:54;;;;;;;1.80;1.77;;;10.90;99.90;;;;;;5248304;28;20213;-51
2022/09/27 12:38:47;;;;;;;4.87;3.30;;;10.90;99.90;;;;;;5245895;28;20463;-51
2022/09/27 12:41:21;;;;;;;9.97;7.20;;;11.10;99.90;;;;;;5248630;28;20454;-51
2022/09/27 12:43:53;;;;;;;13.70;8.20;;;11.40;99.90;;;;;;5245001;28;20455;-52
2022/09/27 12:46:38;;;;;;;8.77;6.03;;;11.60;99.90;;;;;;5242398;28;20525;-51
2022/09/27 12:49:11;;;;;;;12.33;7.03;;;11.90;99.90;;;;;;5247872;28;20436;-52
2022/09/27 12:51:55;;;;;;;18.27;9.77;;;12.30;99.90;;;;;;5243990;28;20428;-51
2022/09/27 12:55:00;;;;;;;13.23;7.93;;;12.50;99.90;;;;;;5247648;28;20543;-50
2022/09/27 12:57:42;;;;;;;5.43;3.23;;;12.80;99.90;;;;;;5248137;28;20737;-53
2022/09/27 13:00:24;;;;;;;2.40;2.30;;;13.00;99.90;;;;;;5248425;28;20634;-53
2022/09/27 13:03:10;;;;;;;3.93;3.50;;;13.10;99.90;;;;;;5235522;28;20468;-53
2022/09/27 13:06:18;;;;;;;3.63;3.40;;;12.90;99.90;;;;;;5247200;28;20487;-51
2022/09/27 13:09:16;;;;;;;2.87;2.60;;;12.70;99.90;;;;;;5239909;28;20471;-52
2022/09/27 13:11:53;;;;;;;4.07;3.77;;;12.70;99.90;;;;;;5246079;28;20437;-51
2022/09/27 13:14:27;;;;;;;11.93;5.87;;;12.70;99.90;;;;;;5246379;28;20459;-55
2022/09/27 13:16:58;;;;;;;4.20;3.90;;;12.90;99.90;;;;;;5242964;28;20443;-52
2022/09/27 13:19:34;;;;;;;2.23;2.13;;;13.10;99.90;;;;;;5237701;28;20475;-52
2022/09/27 13:22:27;;;;;;;16.60;7.27;;;13.20;99.90;;;;;;5247300;28;20212;-51
2022/09/27 13:24:57;;;;;;;3.30;3.07;;;13.30;99.90;;;;;;5249781;28;20436;-52
2022/09/27 13:27:28;;;;;;;4.90;4.00;;;13.20;99.90;;;;;;5246280;28;20540;-53
2022/09/27 13:30:11;;;;;;;5.23;3.80;;;13.10;99.90;;;;;;5249989;28;20186;-51
2022/09/27 13:33:07;;;;;;;5.90;4.90;;;12.90;99.90;;;;;;5245426;28;20301;-53
2022/09/27 13:35:38;;;;;;;4.50;4.20;;;12.80;99.90;;;;;;5234554;28;20428;-52
2022/09/27 13:38:22;;;;;;;3.50;3.30;;;12.70;99.90;;;;;;5246931;28;20437;-51
2022/09/27 13:40:53;;;;;;;2.97;2.87;;;12.50;99.90;;;;;;5252843;28;20183;-55
2022/09/27 13:43:51;;;;;;;5.60;4.60;;;12.40;99.90;;;;;;5244566;28;22357;-51
2022/09/27 13:46:24;;;;;;;2.20;2.10;;;12.30;99.90;;;;;;5242896;28;20492;-50